This is the latest recevied weather packets stored in our database for station/object K0KDS. If no packets are shown the sender has not sent any weather packets the latest 1 day(s).
| Time | Temp. | Humidity | Pressure | Rain* | Wind** | Luminosity | Snow |
|---|---|---|---|---|---|---|---|
| 1836274797 | 17.22° C | 89% | 1015.9 hPa | 0 mm | 0 m/s | - | - |
| 1836273898 | 17.22° C | 88% | 1015.9 hPa | 0 mm | 0 m/s | - | - |
| 1778058989 | 4.44° C | 62% | 1013.1 hPa | 0 mm | 0 m/s | - | - |
| 1778058749 | 4.44° C | 63% | 1013.1 hPa | 0 mm | 0 m/s | - | - |
| 1778058509 | 4.44° C | 62% | 1013 hPa | 0 mm | 0 m/s | - | - |
| 1778058389 | 4.44° C | 62% | 1012.9 hPa | 0 mm | 0 m/s | - | - |
| 1778058269 | 4.44° C | 62% | 1012.8 hPa | 0 mm | 0 m/s | - | - |
| 1778058209 | 4.44° C | 62% | 1012.7 hPa | 0 mm | 0 m/s | - | - |
| 1778057247 | 4.44° C | 63% | 1012.7 hPa | 0 mm | 0 m/s | - | - |
| 1778056347 | 3.89° C | 63% | 1012.5 hPa | 0 mm | 0 m/s | - | - |
| 1778055447 | 3.89° C | 63% | 1012.3 hPa | 0 mm | 0 m/s | - | - |
| 1778054547 | 3.33° C | 62% | 1012.2 hPa | 0 mm | 0 m/s | - | - |
| 1778053647 | 3.33° C | 62% | 1012.3 hPa | 0 mm | 0 m/s | - | - |
| 1778052747 | 3.89° C | 60% | 1012.2 hPa | 0 mm | 0 m/s | - | - |
| 1778051847 | 3.89° C | 60% | 1012.3 hPa | 0 mm | 0 m/s | - | - |
| 1778050947 | 4.44° C | 58% | 1012.3 hPa | 0 mm | 0 m/s | - | - |
| 1778050047 | 4.44° C | 57% | 1012.5 hPa | 0 mm | 0 m/s | - | - |
| 1778049147 | 4.44° C | 57% | 1012.5 hPa | 0 mm | 0 m/s | - | - |
| 1778048247 | 5° C | 56% | 1012.4 hPa | 0 mm | 0 m/s | - | - |
| 1778047347 | 5° C | 56% | 1012.3 hPa | 0 mm | 0 m/s | - | - |
| 1778046447 | 5.56° C | 54% | 1012.2 hPa | 0 mm | 0 m/s | - | - |
| 1778045547 | 5.56° C | 53% | 1012 hPa | 0 mm | 0 m/s | - | - |
| 1778044647 | 5.56° C | 52% | 1011.6 hPa | 0 mm | 0 m/s | - | - |
| 1778043747 | 6.11° C | 51% | 1011.5 hPa | 0 mm | 0 m/s | - | - |
| 1778042847 | 6.11° C | 51% | 1011.4 hPa | 0 mm | 0 m/s | - | - |
* Rain latest hour (hover to see other rain measurements)
** Current wind speed in m/s (hover to see current wind gust speed)